createdAt,value
2023-03-03T00:00:37.201Z,3.40
2023-03-03T00:03:07.913Z,3.40
2023-03-03T00:05:36.405Z,3.30
2023-03-03T00:08:03.981Z,3.30
2023-03-03T00:10:31.297Z,3.30
2023-03-03T00:12:58.283Z,3.30
2023-03-03T00:15:26.256Z,3.20
2023-03-03T00:17:55.691Z,3.20
2023-03-03T00:20:33.813Z,3.20
2023-03-03T00:23:29.638Z,3.10
2023-03-03T00:25:57.616Z,3.10
2023-03-03T00:28:46.492Z,3.20
2023-03-03T00:31:19.509Z,3.10
2023-03-03T00:33:54.856Z,3.20
2023-03-03T00:36:28.666Z,3.20
2023-03-03T00:38:58.176Z,3.20
2023-03-03T00:41:27.893Z,3.20
2023-03-03T00:43:55.133Z,3.30
2023-03-03T00:46:23.570Z,3.30
2023-03-03T00:48:51.581Z,3.30
2023-03-03T00:51:34.407Z,3.30
2023-03-03T00:54:01.332Z,3.40
2023-03-03T00:56:28.358Z,3.30
2023-03-03T00:58:55.384Z,3.30
2023-03-03T01:01:22.746Z,3.30
2023-03-03T01:03:49.844Z,3.30
2023-03-03T01:06:17.110Z,3.40
2023-03-03T01:08:44.080Z,3.40
2023-03-03T01:11:16.522Z,3.40
2023-03-03T01:13:46.085Z,3.30
2023-03-03T01:16:13.118Z,3.30
2023-03-03T01:18:41.878Z,3.30
2023-03-03T01:21:09.946Z,3.40
2023-03-03T01:23:36.952Z,3.40
2023-03-03T01:26:05.214Z,3.30
2023-03-03T01:28:33.623Z,3.30
2023-03-03T01:31:02.828Z,3.30
2023-03-03T01:33:31.639Z,3.30
2023-03-03T01:35:58.650Z,3.30
2023-03-03T01:38:25.797Z,3.30
2023-03-03T01:40:59.931Z,3.30
2023-03-03T01:43:28.452Z,3.30
2023-03-03T01:45:58.409Z,3.30
2023-03-03T01:48:42.761Z,3.30
2023-03-03T01:51:31.043Z,3.40
2023-03-03T01:54:11.196Z,3.40
2023-03-03T01:56:38.257Z,3.40
2023-03-03T01:59:24.389Z,3.50
2023-03-03T02:01:51.458Z,3.50
2023-03-03T02:04:19.159Z,3.60
2023-03-03T02:06:52.191Z,3.60
2023-03-03T02:09:39.936Z,3.50
2023-03-03T02:12:11.559Z,3.50
2023-03-03T02:14:38.679Z,3.60
2023-03-03T02:17:05.924Z,3.60
2023-03-03T02:19:51.060Z,3.60
2023-03-03T02:22:27.106Z,3.60
2023-03-03T02:25:00.091Z,3.70
2023-03-03T02:27:29.707Z,3.80
2023-03-03T02:29:56.701Z,3.70
2023-03-03T02:32:23.747Z,3.70
2023-03-03T02:34:53.005Z,3.70
2023-03-03T02:37:21.129Z,3.60
2023-03-03T02:39:48.111Z,3.70
2023-03-03T02:42:27.235Z,3.60
2023-03-03T02:44:54.441Z,3.60
2023-03-03T02:47:21.404Z,3.60
2023-03-03T02:49:48.336Z,3.60
2023-03-03T02:52:18.140Z,3.70
2023-03-03T02:54:45.273Z,3.70
2023-03-03T02:57:12.281Z,3.70
2023-03-03T02:59:39.165Z,3.70
2023-03-03T03:02:07.477Z,3.70
2023-03-03T03:04:34.583Z,3.70
2023-03-03T03:07:01.695Z,3.70
2023-03-03T03:09:28.785Z,3.60
2023-03-03T03:11:55.749Z,3.60
2023-03-03T03:14:23.953Z,3.60
2023-03-03T03:16:51.209Z,3.60
2023-03-03T03:19:18.125Z,3.70
2023-03-03T03:21:45.014Z,3.60
2023-03-03T03:24:11.972Z,3.60
2023-03-03T03:26:38.919Z,3.60
2023-03-03T03:29:06.410Z,3.60
2023-03-03T03:31:33.811Z,3.60
2023-03-03T03:34:00.806Z,3.60
2023-03-03T03:36:28.408Z,3.60
2023-03-03T03:38:55.420Z,3.80
2023-03-03T03:41:22.409Z,3.90
2023-03-03T03:43:49.293Z,3.90
2023-03-03T03:46:16.290Z,3.80
2023-03-03T03:48:43.253Z,3.70
2023-03-03T03:51:12.023Z,3.70
2023-03-03T03:53:39.028Z,3.80
2023-03-03T03:56:06.471Z,3.70
2023-03-03T03:58:33.417Z,3.70
2023-03-03T04:01:05.583Z,3.70
2023-03-03T04:03:32.642Z,3.70
2023-03-03T04:05:59.602Z,3.70
2023-03-03T04:08:26.555Z,3.70
2023-03-03T04:10:53.491Z,3.70
2023-03-03T04:13:20.472Z,3.80
2023-03-03T04:15:47.675Z,3.70
2023-03-03T04:18:14.780Z,3.70
2023-03-03T04:20:41.946Z,3.70
2023-03-03T04:23:08.880Z,3.70
2023-03-03T04:25:35.907Z,3.70
2023-03-03T04:28:05.435Z,3.80
2023-03-03T04:30:32.990Z,3.80
2023-03-03T04:32:59.938Z,3.80
2023-03-03T04:35:27.045Z,3.80
2023-03-03T04:37:54.230Z,3.80
2023-03-03T04:40:21.198Z,3.80
2023-03-03T04:42:48.364Z,3.80
2023-03-03T04:45:15.533Z,3.80
2023-03-03T04:47:42.529Z,3.80
2023-03-03T04:50:11.024Z,3.70
2023-03-03T04:52:38.150Z,3.80
2023-03-03T04:55:05.666Z,3.80
2023-03-03T04:57:32.719Z,3.80
2023-03-03T04:59:59.704Z,3.80
2023-03-03T05:02:26.668Z,3.80
2023-03-03T05:04:53.707Z,3.80
2023-03-03T05:07:21.043Z,3.80
2023-03-03T05:09:47.982Z,3.80
2023-03-03T05:12:14.953Z,3.80
2023-03-03T05:14:42.373Z,3.80
2023-03-03T05:17:09.611Z,3.90
2023-03-03T05:19:36.596Z,3.90
2023-03-03T05:22:03.613Z,3.90
2023-03-03T05:24:30.581Z,3.90
2023-03-03T05:26:57.538Z,3.90
2023-03-03T05:29:24.811Z,3.90
2023-03-03T05:31:51.757Z,3.90
2023-03-03T05:34:18.646Z,3.90
2023-03-03T05:36:45.562Z,3.90
2023-03-03T05:39:12.516Z,3.90
2023-03-03T05:41:39.551Z,3.90
2023-03-03T05:44:06.571Z,3.90
2023-03-03T05:46:33.581Z,3.90
2023-03-03T05:49:00.514Z,3.90
2023-03-03T05:51:27.671Z,3.90
2023-03-03T05:53:56.466Z,3.90
2023-03-03T05:56:23.538Z,4.00
2023-03-03T05:58:50.799Z,4.00
2023-03-03T06:01:17.907Z,4.00
2023-03-03T06:03:44.958Z,4.00
2023-03-03T06:06:12.552Z,3.90
2023-03-03T06:08:39.536Z,3.90
2023-03-03T06:11:06.425Z,3.90
2023-03-03T06:13:33.318Z,3.90
2023-03-03T06:16:00.347Z,3.90
2023-03-03T06:18:27.344Z,3.90
2023-03-03T06:20:55.328Z,3.90
2023-03-03T06:23:22.776Z,4.00
2023-03-03T06:25:49.752Z,4.00
2023-03-03T06:28:16.690Z,4.00
2023-03-03T06:30:43.740Z,4.00
2023-03-03T06:33:11.049Z,3.90
2023-03-03T06:35:40.778Z,4.00
2023-03-03T06:38:08.207Z,3.90
2023-03-03T06:40:35.110Z,3.90
2023-03-03T06:43:03.349Z,3.90
2023-03-03T06:45:30.287Z,3.80
2023-03-03T06:47:57.210Z,3.80
2023-03-03T06:50:24.150Z,3.90
2023-03-03T06:53:10.610Z,3.90
2023-03-03T06:55:38.162Z,3.90
2023-03-03T06:58:16.200Z,3.90
2023-03-03T07:00:45.607Z,3.90
2023-03-03T07:03:23.396Z,3.90
2023-03-03T07:05:51.627Z,3.90
2023-03-03T07:08:21.357Z,3.90
2023-03-03T07:10:49.971Z,3.90
2023-03-03T07:13:24.070Z,4.00
2023-03-03T07:15:53.011Z,4.00
2023-03-03T07:18:37.482Z,4.00
2023-03-03T07:21:16.414Z,4.00
2023-03-03T07:23:45.995Z,4.00
2023-03-03T07:26:34.586Z,4.00
2023-03-03T07:29:19.615Z,3.90
2023-03-03T07:31:48.627Z,4.00
2023-03-03T07:34:44.709Z,4.00
2023-03-03T07:37:18.667Z,4.00
2023-03-03T07:39:47.734Z,4.00
2023-03-03T07:42:35.567Z,4.00
2023-03-03T07:45:04.370Z,4.10
2023-03-03T07:47:36.984Z,4.10
2023-03-03T07:50:34.265Z,4.20
2023-03-03T07:53:02.249Z,4.20
2023-03-03T07:55:39.995Z,4.20
2023-03-03T07:58:21.092Z,4.20
2023-03-03T08:01:25.240Z,4.20
2023-03-03T08:03:52.580Z,4.20
2023-03-03T08:06:29.758Z,4.20
2023-03-03T08:09:10.308Z,4.10
2023-03-03T08:12:00.214Z,4.20
2023-03-03T08:14:38.718Z,4.20
2023-03-03T08:17:22.163Z,4.20
2023-03-03T08:19:51.100Z,4.20
2023-03-03T08:22:33.301Z,4.20
2023-03-03T08:25:00.243Z,4.20
2023-03-03T08:27:27.173Z,4.40
2023-03-03T08:29:54.091Z,4.50
2023-03-03T08:32:21.291Z,4.50
2023-03-03T08:34:48.275Z,4.50
2023-03-03T08:37:15.173Z,4.50
2023-03-03T08:39:42.093Z,4.50
2023-03-03T08:42:09.161Z,4.60
2023-03-03T08:44:36.090Z,4.70
2023-03-03T08:47:03.014Z,4.70
2023-03-03T08:49:30.037Z,4.80
2023-03-03T08:51:57.971Z,4.90
2023-03-03T08:54:24.909Z,4.90
2023-03-03T08:56:52.215Z,5.00
2023-03-03T08:59:20.568Z,5.00
2023-03-03T09:01:47.595Z,5.00
2023-03-03T09:04:14.695Z,4.90
2023-03-03T09:06:41.706Z,5.00
2023-03-03T09:09:08.646Z,5.00
2023-03-03T09:11:35.872Z,5.00
2023-03-03T09:14:15.310Z,5.00
2023-03-03T09:16:49.739Z,5.10
2023-03-03T09:19:25.553Z,5.10
2023-03-03T09:21:57.189Z,5.10
2023-03-03T09:24:37.007Z,5.10
2023-03-03T09:27:18.813Z,5.10
2023-03-03T09:29:46.009Z,5.10
2023-03-03T09:32:30.455Z,5.10
2023-03-03T09:34:57.407Z,5.20
2023-03-03T09:37:36.591Z,5.30
2023-03-03T09:40:32.456Z,5.40
2023-03-03T09:43:24.230Z,5.40
2023-03-03T09:46:32.281Z,5.20
2023-03-03T09:49:10.928Z,5.20
2023-03-03T09:52:07.021Z,5.40
2023-03-03T09:54:48.030Z,5.30
2023-03-03T09:58:10.114Z,5.40
2023-03-03T10:00:53.895Z,5.50
2023-03-03T10:03:48.723Z,5.70
2023-03-03T10:06:37.313Z,5.50
2023-03-03T10:09:17.898Z,5.50
2023-03-03T10:12:07.293Z,5.50
2023-03-03T10:15:15.509Z,5.40
2023-03-03T10:17:54.162Z,5.60
2023-03-03T10:20:51.072Z,5.70
2023-03-03T10:23:21.281Z,5.70
2023-03-03T10:26:00.198Z,5.50
2023-03-03T10:28:40.519Z,5.40
2023-03-03T10:31:41.478Z,5.40
2023-03-03T10:34:37.981Z,5.50
2023-03-03T10:37:19.221Z,5.50
2023-03-03T10:40:13.319Z,5.60
2023-03-03T10:43:03.884Z,5.60
2023-03-03T10:45:54.176Z,5.70
2023-03-03T10:48:33.899Z,5.80
2023-03-03T10:51:12.626Z,5.70
2023-03-03T10:53:55.610Z,5.80
2023-03-03T10:56:53.230Z,5.90
2023-03-03T10:59:31.399Z,5.90
2023-03-03T11:02:18.971Z,5.90
2023-03-03T11:05:23.391Z,5.90
2023-03-03T11:08:02.393Z,6.00
2023-03-03T11:10:35.508Z,6.00
2023-03-03T11:13:25.208Z,6.00
2023-03-03T11:15:55.057Z,6.20
2023-03-03T11:18:49.678Z,6.20
2023-03-03T11:21:23.486Z,6.20
2023-03-03T11:24:08.479Z,6.30
2023-03-03T11:26:53.374Z,6.40
2023-03-03T11:29:38.214Z,6.50
2023-03-03T11:32:21.195Z,6.50
2023-03-03T11:34:48.191Z,6.50
2023-03-03T11:37:39.302Z,6.50
2023-03-03T11:40:24.741Z,6.40
2023-03-03T11:43:33.792Z,6.40
2023-03-03T11:46:34.820Z,6.50
2023-03-03T11:49:22.727Z,6.50
2023-03-03T11:52:01.388Z,6.50
2023-03-03T11:54:41.226Z,6.30
2023-03-03T11:57:20.499Z,6.30
2023-03-03T11:59:59.257Z,6.40
2023-03-03T12:02:45.887Z,6.40
2023-03-03T12:05:50.351Z,6.60
2023-03-03T12:08:45.179Z,6.70
2023-03-03T12:11:17.815Z,6.90
2023-03-03T12:14:03.810Z,7.00
2023-03-03T12:16:42.631Z,7.00
2023-03-03T12:19:20.690Z,7.00
2023-03-03T12:21:57.985Z,7.00
2023-03-03T12:24:49.836Z,7.00
2023-03-03T12:28:01.123Z,7.20
2023-03-03T12:30:28.086Z,7.20
2023-03-03T12:33:16.424Z,7.00
2023-03-03T12:35:50.686Z,6.90
2023-03-03T12:38:26.329Z,7.00
2023-03-03T12:41:17.691Z,7.00
2023-03-03T12:43:55.195Z,7.00
2023-03-03T12:46:44.354Z,7.10
2023-03-03T12:49:11.836Z,7.10
2023-03-03T12:52:01.226Z,7.20
2023-03-03T12:54:37.000Z,7.10
2023-03-03T12:57:27.697Z,7.10
2023-03-03T13:00:02.135Z,7.10
2023-03-03T13:02:32.114Z,7.20
2023-03-03T13:05:16.235Z,7.00
2023-03-03T13:08:31.248Z,6.80
2023-03-03T13:11:14.240Z,7.00
2023-03-03T13:13:41.367Z,7.10
2023-03-03T13:16:17.049Z,7.10
2023-03-03T13:19:06.797Z,7.10
2023-03-03T13:22:08.667Z,7.10
2023-03-03T13:24:42.723Z,7.20
2023-03-03T13:27:15.088Z,7.10
2023-03-03T13:30:03.204Z,7.10
2023-03-03T13:32:43.371Z,7.10
2023-03-03T13:35:32.105Z,7.00
2023-03-03T13:38:00.617Z,6.80
2023-03-03T13:40:39.812Z,6.90
2023-03-03T13:43:27.414Z,7.00
2023-03-03T13:46:08.749Z,7.10
2023-03-03T13:48:46.786Z,6.90
2023-03-03T13:51:38.508Z,7.00
2023-03-03T13:54:17.495Z,6.90
2023-03-03T13:57:06.469Z,7.00
2023-03-03T13:59:46.127Z,7.00
2023-03-03T14:02:55.620Z,7.00
2023-03-03T14:05:31.905Z,7.00
2023-03-03T14:08:24.712Z,6.90
2023-03-03T14:11:25.707Z,6.90
2023-03-03T14:14:40.531Z,6.90
2023-03-03T14:17:13.278Z,6.70
2023-03-03T14:19:54.812Z,6.70
2023-03-03T14:22:25.322Z,6.70
2023-03-03T14:25:03.054Z,6.80
2023-03-03T14:27:48.075Z,6.80
2023-03-03T14:30:36.638Z,6.80
2023-03-03T14:33:12.072Z,6.70
2023-03-03T14:35:51.170Z,6.70
2023-03-03T14:38:22.185Z,6.60
2023-03-03T14:41:04.164Z,6.70
2023-03-03T14:43:37.592Z,6.70
2023-03-03T14:46:40.428Z,6.50
2023-03-03T14:49:33.170Z,6.60
2023-03-03T14:52:19.784Z,6.50
2023-03-03T14:54:49.146Z,6.60
2023-03-03T14:57:37.838Z,6.60
2023-03-03T15:00:13.904Z,6.30
2023-03-03T15:02:53.092Z,6.40
2023-03-03T15:05:29.029Z,6.40
2023-03-03T15:08:05.593Z,6.30
2023-03-03T15:10:35.361Z,6.10
2023-03-03T15:13:19.998Z,6.10
2023-03-03T15:16:00.761Z,6.00
2023-03-03T15:18:29.921Z,6.10
2023-03-03T15:21:08.318Z,6.30
2023-03-03T15:24:07.731Z,6.40
2023-03-03T15:26:46.870Z,6.10
2023-03-03T15:29:22.584Z,6.00
2023-03-03T15:32:09.360Z,6.00
2023-03-03T15:34:36.300Z,5.90
2023-03-03T15:37:16.866Z,5.80
2023-03-03T15:40:02.075Z,5.90
2023-03-03T15:42:52.963Z,6.00
2023-03-03T15:45:34.212Z,6.00
2023-03-03T15:48:22.016Z,5.90
2023-03-03T15:50:51.897Z,5.80
2023-03-03T15:53:49.101Z,5.80
2023-03-03T15:56:26.096Z,5.90
2023-03-03T15:58:58.775Z,5.80
2023-03-03T16:01:29.799Z,5.80
2023-03-03T16:04:08.705Z,5.80
2023-03-03T16:07:04.077Z,5.80
2023-03-03T16:09:56.570Z,5.80
2023-03-03T16:12:38.679Z,5.80
2023-03-03T16:15:11.231Z,5.70
2023-03-03T16:18:01.198Z,5.60
2023-03-03T16:20:33.931Z,5.70
2023-03-03T16:23:03.930Z,5.90
2023-03-03T16:26:32.895Z,5.90
2023-03-03T16:29:05.647Z,5.90
2023-03-03T16:32:05.131Z,5.90
2023-03-03T16:34:55.855Z,6.00
2023-03-03T16:37:37.480Z,6.00
2023-03-03T16:40:31.994Z,5.90
2023-03-03T16:43:39.408Z,6.00
2023-03-03T16:46:32.887Z,5.90
2023-03-03T16:49:16.135Z,5.90
2023-03-03T16:51:48.748Z,5.90
2023-03-03T16:54:21.994Z,5.80
2023-03-03T16:57:05.212Z,5.60
2023-03-03T16:59:38.052Z,5.50
2023-03-03T17:02:40.136Z,5.50
2023-03-03T17:05:19.430Z,5.40
2023-03-03T17:08:01.389Z,5.50
2023-03-03T17:10:32.819Z,5.40
2023-03-03T17:13:17.539Z,5.40
2023-03-03T17:16:00.353Z,5.40
2023-03-03T17:18:51.147Z,5.40
2023-03-03T17:21:36.868Z,5.40
2023-03-03T17:24:14.008Z,5.40
2023-03-03T17:27:21.071Z,5.30
2023-03-03T17:30:03.484Z,5.30
2023-03-03T17:32:41.988Z,5.30
2023-03-03T17:35:27.171Z,5.30
2023-03-03T17:38:10.476Z,5.20
2023-03-03T17:40:49.485Z,5.20
2023-03-03T17:43:24.956Z,5.10
2023-03-03T17:45:56.429Z,5.10
2023-03-03T17:48:39.313Z,5.20
2023-03-03T17:51:21.451Z,5.20
2023-03-03T17:54:31.016Z,5.20
2023-03-03T17:57:37.124Z,5.40
2023-03-03T18:00:19.706Z,5.30
2023-03-03T18:03:10.944Z,5.30
2023-03-03T18:06:15.403Z,5.20
2023-03-03T18:09:13.630Z,5.20
2023-03-03T18:11:49.952Z,5.20
2023-03-03T18:14:58.294Z,5.20
2023-03-03T18:17:49.518Z,5.20
2023-03-03T18:20:53.623Z,5.20
2023-03-03T18:23:43.582Z,5.20
2023-03-03T18:26:40.505Z,5.20
2023-03-03T18:29:27.988Z,5.20
2023-03-03T18:31:57.814Z,5.20
2023-03-03T18:34:38.668Z,5.10
2023-03-03T18:37:30.594Z,5.10
2023-03-03T18:40:03.506Z,5.10
2023-03-03T18:42:39.780Z,5.00
2023-03-03T18:45:19.384Z,5.00
2023-03-03T18:48:01.524Z,5.00
2023-03-03T18:50:45.025Z,5.00
2023-03-03T18:53:30.624Z,5.00
2023-03-03T18:56:12.788Z,5.00
2023-03-03T18:58:42.132Z,5.10
2023-03-03T19:01:11.704Z,5.10
2023-03-03T19:04:18.919Z,5.10
2023-03-03T19:06:49.756Z,5.00
2023-03-03T19:09:40.858Z,5.10
2023-03-03T19:12:11.434Z,5.10
2023-03-03T19:14:41.133Z,5.10
2023-03-03T19:17:23.297Z,5.10
2023-03-03T19:20:15.239Z,5.10
2023-03-03T19:22:50.970Z,5.10
2023-03-03T19:25:25.184Z,5.10
2023-03-03T19:28:23.138Z,5.00
2023-03-03T19:31:04.977Z,5.00
2023-03-03T19:33:52.571Z,5.00
2023-03-03T19:36:58.162Z,5.20
2023-03-03T19:39:50.392Z,5.30
2023-03-03T19:42:23.248Z,5.40
2023-03-03T19:44:56.865Z,5.20
2023-03-03T19:47:32.881Z,5.20
2023-03-03T19:50:44.586Z,5.10
2023-03-03T19:53:33.338Z,5.10
2023-03-03T19:56:18.818Z,5.00
2023-03-03T19:59:16.837Z,5.00
2023-03-03T20:01:51.275Z,5.00
2023-03-03T20:04:38.748Z,5.00
2023-03-03T20:07:17.645Z,5.00
2023-03-03T20:10:16.557Z,5.00
2023-03-03T20:12:43.530Z,5.00
2023-03-03T20:15:33.530Z,4.90
2023-03-03T20:18:21.905Z,5.00
2023-03-03T20:20:54.919Z,4.90
2023-03-03T20:23:59.821Z,4.80
2023-03-03T20:27:04.224Z,4.80
2023-03-03T20:30:01.785Z,4.90
2023-03-03T20:32:58.713Z,4.80
2023-03-03T20:35:44.946Z,4.70
2023-03-03T20:38:35.391Z,4.70
2023-03-03T20:41:44.524Z,4.70
2023-03-03T20:44:48.864Z,4.70
2023-03-03T20:47:39.940Z,4.70
2023-03-03T20:50:12.148Z,4.60
2023-03-03T20:53:02.269Z,4.60
2023-03-03T20:56:02.191Z,4.50
2023-03-03T20:59:05.694Z,4.50
2023-03-03T21:01:41.282Z,4.40
2023-03-03T21:04:25.425Z,4.30
2023-03-03T21:06:53.114Z,4.20
2023-03-03T21:09:24.216Z,4.20
2023-03-03T21:11:51.315Z,4.10
2023-03-03T21:14:24.451Z,4.20
2023-03-03T21:16:53.869Z,4.10
2023-03-03T21:19:35.123Z,4.20
2023-03-03T21:22:03.371Z,4.10
2023-03-03T21:24:59.026Z,4.20
2023-03-03T21:27:34.445Z,4.30
2023-03-03T21:30:10.823Z,4.20
2023-03-03T21:32:45.396Z,4.20
2023-03-03T21:35:22.813Z,4.20
2023-03-03T21:37:55.876Z,4.20
2023-03-03T21:40:27.710Z,4.10
2023-03-03T21:42:59.970Z,3.90
2023-03-03T21:45:27.408Z,3.80
2023-03-03T21:47:59.692Z,3.70
2023-03-03T21:50:31.311Z,3.70
2023-03-03T21:52:58.221Z,3.60
2023-03-03T21:55:26.761Z,3.60
2023-03-03T21:57:53.849Z,3.40
2023-03-03T22:00:21.139Z,3.40
2023-03-03T22:02:48.030Z,3.30
2023-03-03T22:05:15.055Z,3.20
2023-03-03T22:07:43.283Z,3.20
2023-03-03T22:10:11.189Z,3.20
2023-03-03T22:12:38.145Z,3.20
2023-03-03T22:15:05.520Z,3.20
2023-03-03T22:17:32.414Z,3.20
2023-03-03T22:20:00.498Z,3.20
2023-03-03T22:22:27.586Z,3.30
2023-03-03T22:24:54.558Z,3.40
2023-03-03T22:27:21.484Z,3.50
2023-03-03T22:29:48.404Z,3.60
2023-03-03T22:32:15.321Z,3.60
2023-03-03T22:34:42.458Z,3.70
2023-03-03T22:37:09.389Z,3.70
2023-03-03T22:39:36.300Z,3.80
2023-03-03T22:42:03.238Z,3.80
2023-03-03T22:44:30.146Z,3.70
2023-03-03T22:46:57.053Z,3.80
2023-03-03T22:49:23.989Z,3.80
2023-03-03T22:51:50.932Z,3.80
2023-03-03T22:54:17.842Z,3.80
2023-03-03T22:56:44.758Z,3.80
2023-03-03T22:59:11.710Z,3.70
2023-03-03T23:01:38.589Z,3.70
2023-03-03T23:04:05.658Z,3.70
2023-03-03T23:06:32.625Z,3.80
2023-03-03T23:08:59.560Z,3.80
2023-03-03T23:11:27.733Z,3.80
2023-03-03T23:13:54.706Z,3.70
2023-03-03T23:16:21.685Z,3.70
2023-03-03T23:18:48.654Z,3.70
2023-03-03T23:21:15.628Z,3.70
2023-03-03T23:23:42.747Z,3.70
2023-03-03T23:26:09.707Z,3.80
2023-03-03T23:28:36.946Z,3.70
2023-03-03T23:31:04.016Z,3.60
2023-03-03T23:33:31.153Z,3.50
2023-03-03T23:35:58.471Z,3.60
2023-03-03T23:38:25.458Z,3.60
2023-03-03T23:40:52.442Z,3.50
2023-03-03T23:43:19.355Z,3.50
2023-03-03T23:45:46.359Z,3.50
2023-03-03T23:48:13.831Z,3.50
2023-03-03T23:50:40.785Z,3.50
2023-03-03T23:53:08.230Z,3.40
2023-03-03T23:55:36.377Z,3.40
2023-03-03T23:58:04.068Z,3.40
